Time;durP1;ratioP1;P1;durP2;ratioP2;P2;SDS_P1;SDS_P2;PMS_P1;PMS_P2;Temp;Humidity;BMP_temperature;BMP_pressure;BME280_temperature;BME280_humidity;BME280_pressure;Samples;Min_cycle;Max_cycle;Signal;HPM_P1;HPM_P2
2022/06/01 00:00:40;;;;;;;2.63;2.10;;;;;;;;;;5085442;28;20029;-65
2022/06/01 00:03:07;;;;;;;2.90;1.98;;;;;;;;;;5084597;28;20019;-65
2022/06/01 00:05:33;;;;;;;5.75;2.00;;;;;;;;;;5084089;28;20134;-65
2022/06/01 00:07:58;;;;;;;2.50;1.90;;;;;;;;;;5081939;28;20177;-65
2022/06/01 00:10:24;;;;;;;2.50;1.75;;;;;;;;;;5083004;28;20531;-65
2022/06/01 00:12:49;;;;;;;3.67;2.10;;;;;;;;;;5087253;28;20106;-65
2022/06/01 00:15:16;;;;;;;3.50;2.10;;;;;;;;;;5086890;28;20036;-64
2022/06/01 00:17:42;;;;;;;2.92;1.80;;;;;;;;;;5086912;28;20069;-65
2022/06/01 00:20:08;;;;;;;3.92;1.90;;;;;;;;;;5084527;28;20048;-65
2022/06/01 00:22:33;;;;;;;4.03;2.10;;;;;;;;;;5085067;28;20108;-65
2022/06/01 00:24:58;;;;;;;3.88;1.90;;;;;;;;;;5082407;28;20544;-65
2022/06/01 00:27:25;;;;;;;2.85;2.20;;;;;;;;;;5082699;28;20056;-65
2022/06/01 00:29:51;;;;;;;5.65;2.38;;;;;;;;;;5087374;28;20039;-65
2022/06/01 00:32:17;;;;;;;6.07;1.88;;;;;;;;;;5084581;28;20596;-64
2022/06/01 00:34:43;;;;;;;5.38;2.30;;;;;;;;;;5084130;28;20119;-65
2022/06/01 00:37:09;;;;;;;4.50;2.47;;;;;;;;;;5086213;28;20127;-65
2022/06/01 00:39:35;;;;;;;3.70;2.03;;;;;;;;;;5082096;28;20052;-65
2022/06/01 00:42:13;;;;;;;3.35;2.10;;;;;;;;;;5085564;28;20020;-65
2022/06/01 00:44:38;;;;;;;4.30;2.35;;;;;;;;;;5085054;28;20611;-65
2022/06/01 00:47:05;;;;;;;5.88;2.50;;;;;;;;;;5085903;28;20051;-65
2022/06/01 00:49:31;;;;;;;3.65;2.00;;;;;;;;;;5085352;28;20044;-64
2022/06/01 00:51:56;;;;;;;4.13;2.50;;;;;;;;;;5086352;28;20055;-65
2022/06/01 00:54:22;;;;;;;5.60;2.70;;;;;;;;;;5083760;28;20176;-65
2022/06/01 00:56:53;;;;;;;3.85;2.30;;;;;;;;;;5084763;28;20012;-65
2022/06/01 00:59:22;;;;;;;5.28;2.30;;;;;;;;;;5084812;28;20070;-65
2022/06/01 01:01:51;;;;;;;4.22;2.25;;;;;;;;;;5084242;28;20054;-65
2022/06/01 01:04:17;;;;;;;4.30;2.40;;;;;;;;;;5079200;28;20521;-65
2022/06/01 01:06:43;;;;;;;3.65;2.10;;;;;;;;;;5080364;28;20054;-65
2022/06/01 01:09:10;;;;;;;5.15;2.70;;;;;;;;;;5085428;28;20020;-65
2022/06/01 01:11:51;;;;;;;4.72;2.38;;;;;;;;;;5081112;28;20185;-65
2022/06/01 01:14:22;;;;;;;4.28;2.40;;;;;;;;;;5084280;28;20516;-65
2022/06/01 01:16:49;;;;;;;3.20;2.10;;;;;;;;;;5087991;28;20028;-64
2022/06/01 01:19:25;;;;;;;3.97;2.65;;;;;;;;;;5084602;28;20061;-65
2022/06/01 01:21:57;;;;;;;6.28;2.20;;;;;;;;;;5080465;28;20087;-65
2022/06/01 01:24:37;;;;;;;5.30;2.42;;;;;;;;;;5073507;28;20040;-65
2022/06/01 01:27:03;;;;;;;4.30;2.17;;;;;;;;;;5085989;28;20034;-65
2022/06/01 01:29:38;;;;;;;3.97;2.40;;;;;;;;;;5083010;28;20040;-65
2022/06/01 01:32:05;;;;;;;8.38;3.03;;;;;;;;;;5085753;28;20032;-65
2022/06/01 01:34:32;;;;;;;4.07;2.33;;;;;;;;;;5085373;28;20095;-65
2022/06/01 01:37:01;;;;;;;4.88;2.08;;;;;;;;;;5086463;28;20412;-65
2022/06/01 01:39:30;;;;;;;7.15;2.28;;;;;;;;;;5091460;28;20023;-65
2022/06/01 01:41:57;;;;;;;8.43;2.63;;;;;;;;;;5105556;28;20028;-65
2022/06/01 01:44:25;;;;;;;4.18;2.35;;;;;;;;;;5106606;28;20043;-65
2022/06/01 01:46:51;;;;;;;7.18;2.60;;;;;;;;;;5078042;28;20078;-65
2022/06/01 01:49:21;;;;;;;5.10;2.42;;;;;;;;;;5081461;28;20417;-65
2022/06/01 01:51:47;;;;;;;7.22;2.85;;;;;;;;;;5079483;28;20120;-65
2022/06/01 01:54:43;;;;;;;4.78;2.38;;;;;;;;;;5079246;28;20013;-65
2022/06/01 01:57:43;;;;;;;6.15;2.58;;;;;;;;;;5080831;28;20039;-65
2022/06/01 02:00:09;;;;;;;7.43;2.40;;;;;;;;;;5067151;28;20064;-65
2022/06/01 02:02:42;;;;;;;5.43;2.33;;;;;;;;;;5075941;28;20066;-65
2022/06/01 02:08:03;;;;;;;3.97;2.33;;;;;;;;;;5086455;28;20066;-65
2022/06/01 02:13:16;;;;;;;3.95;2.35;;;;;;;;;;5095752;28;20053;-65
2022/06/01 02:15:45;;;;;;;5.50;2.28;;;;;;;;;;5095198;28;20513;-64
2022/06/01 02:18:21;;;;;;;6.80;2.70;;;;;;;;;;5089788;28;20024;-64
2022/06/01 02:20:52;;;;;;;7.55;2.50;;;;;;;;;;5084197;28;20054;-65
2022/06/01 02:23:17;;;;;;;5.97;2.95;;;;;;;;;;5086381;28;20024;-65
2022/06/01 02:25:48;;;;;;;3.53;2.55;;;;;;;;;;5088173;28;20054;-65
2022/06/01 02:28:14;;;;;;;4.97;2.83;;;;;;;;;;5087588;28;20032;-65
2022/06/01 02:30:42;;;;;;;5.35;2.83;;;;;;;;;;5089942;28;20036;-64
2022/06/01 02:33:17;;;;;;;6.20;2.65;;;;;;;;;;5086940;28;20439;-65
2022/06/01 02:35:44;;;;;;;6.65;3.00;;;;;;;;;;5083571;28;20055;-65
2022/06/01 02:38:15;;;;;;;10.90;3.10;;;;;;;;;;5085847;28;20559;-64
2022/06/01 02:40:41;;;;;;;4.50;2.78;;;;;;;;;;5089939;28;20112;-65
2022/06/01 02:43:07;;;;;;;7.35;3.55;;;;;;;;;;5087245;28;20051;-65
2022/06/01 02:45:32;;;;;;;6.55;2.92;;;;;;;;;;5086229;28;20028;-65
2022/06/01 02:48:01;;;;;;;6.80;3.47;;;;;;;;;;5079221;28;20035;-65
2022/06/01 02:50:30;;;;;;;5.60;3.20;;;;;;;;;;5084404;28;20144;-65
2022/06/01 02:52:55;;;;;;;5.63;3.10;;;;;;;;;;5089347;28;20101;-64
2022/06/01 02:55:22;;;;;;;8.50;2.90;;;;;;;;;;5077340;28;20040;-65
2022/06/01 02:57:49;;;;;;;6.28;2.85;;;;;;;;;;5080639;28;20032;-65
2022/06/01 03:00:19;;;;;;;6.65;3.15;;;;;;;;;;5087199;28;20656;-65
2022/06/01 03:02:47;;;;;;;7.28;3.47;;;;;;;;;;5085735;28;20040;-65
2022/06/01 03:05:15;;;;;;;6.63;2.78;;;;;;;;;;5088218;28;20452;-65
2022/06/01 03:07:41;;;;;;;5.85;2.95;;;;;;;;;;5088245;28;20081;-65
2022/06/01 03:10:07;;;;;;;4.70;3.03;;;;;;;;;;5088775;28;20024;-65
2022/06/01 03:12:33;;;;;;;3.97;2.65;;;;;;;;;;5085553;28;20028;-65
2022/06/01 03:14:58;;;;;;;6.00;3.00;;;;;;;;;;5090985;28;20035;-64
2022/06/01 03:17:23;;;;;;;8.75;2.97;;;;;;;;;;5088338;28;20062;-64
2022/06/01 03:19:49;;;;;;;9.38;3.10;;;;;;;;;;5082370;28;20459;-65
2022/06/01 03:22:14;;;;;;;4.60;2.88;;;;;;;;;;5082151;28;20111;-65
2022/06/01 03:24:40;;;;;;;5.20;2.50;;;;;;;;;;5087660;28;20035;-64
2022/06/01 03:27:05;;;;;;;6.63;2.72;;;;;;;;;;5084690;28;20020;-64
2022/06/01 03:29:31;;;;;;;5.63;2.60;;;;;;;;;;5087719;28;20630;-65
2022/06/01 03:31:58;;;;;;;10.02;3.00;;;;;;;;;;5086763;28;20168;-65
2022/06/01 03:34:25;;;;;;;5.55;2.70;;;;;;;;;;5086708;28;20093;-64
2022/06/01 03:36:51;;;;;;;4.32;2.55;;;;;;;;;;5087618;28;20036;-65
2022/06/01 03:39:16;;;;;;;5.18;2.80;;;;;;;;;;5087269;28;20027;-65
2022/06/01 03:41:41;;;;;;;5.55;2.90;;;;;;;;;;5080482;28;20417;-65
2022/06/01 03:46:52;;;;;;;5.70;2.60;;;;;;;;;;5087623;28;20086;-65
2022/06/01 03:49:18;;;;;;;5.18;2.70;;;;;;;;;;5088793;28;20588;-64
2022/06/01 03:51:43;;;;;;;5.05;2.67;;;;;;;;;;5089764;28;20126;-65
2022/06/01 03:54:09;;;;;;;3.95;2.42;;;;;;;;;;5085399;28;20024;-64
2022/06/01 03:56:35;;;;;;;5.25;2.80;;;;;;;;;;5081240;28;20116;-65
2022/06/01 03:59:01;;;;;;;5.60;2.85;;;;;;;;;;5080430;28;20127;-64
2022/06/01 04:01:31;;;;;;;5.88;3.00;;;;;;;;;;5087408;28;20054;-65
2022/06/01 04:03:56;;;;;;;5.35;2.70;;;;;;;;;;5082718;28;20588;-65
2022/06/01 04:06:21;;;;;;;5.05;3.28;;;;;;;;;;5083181;28;20031;-65
2022/06/01 04:08:46;;;;;;;5.05;3.03;;;;;;;;;;5087249;28;20020;-65
2022/06/01 04:11:12;;;;;;;10.10;3.35;;;;;;;;;;5086685;28;20081;-64
2022/06/01 04:13:37;;;;;;;5.40;3.05;;;;;;;;;;5090319;28;20513;-65
2022/06/01 04:16:03;;;;;;;4.70;2.80;;;;;;;;;;5085033;28;20472;-65
2022/06/01 04:18:28;;;;;;;4.97;2.75;;;;;;;;;;5084605;28;20024;-64
2022/06/01 04:20:55;;;;;;;5.53;2.85;;;;;;;;;;5083071;28;20048;-64
2022/06/01 04:23:20;;;;;;;5.43;2.90;;;;;;;;;;5078912;28;20028;-65
2022/06/01 04:25:46;;;;;;;6.75;3.00;;;;;;;;;;5078527;28;20050;-65
2022/06/01 04:28:11;;;;;;;4.65;2.88;;;;;;;;;;5087303;28;20114;-65
2022/06/01 04:30:37;;;;;;;6.72;2.90;;;;;;;;;;5086877;28;20462;-64
2022/06/01 04:33:03;;;;;;;6.18;3.00;;;;;;;;;;5082769;28;20035;-65
2022/06/01 04:35:28;;;;;;;4.70;2.65;;;;;;;;;;5068744;28;20033;-65
2022/06/01 04:38:12;;;;;;;5.85;3.17;;;;;;;;;;5087373;28;20028;-65
2022/06/01 04:40:37;;;;;;;;;;;;;;;;;;5086599;28;20085;-65
2022/06/01 04:43:02;;;;;;;4.32;2.95;;;;;;;;;;5084609;28;19912;-65
2022/06/01 04:45:28;;;;;;;7.63;2.92;;;;;;;;;;5085254;28;20070;-65
2022/06/01 04:47:53;;;;;;;5.53;2.97;;;;;;;;;;5080212;28;20074;-64
2022/06/01 04:50:18;;;;;;;7.15;2.85;;;;;;;;;;5075503;28;20028;-65
2022/06/01 04:52:44;;;;;;;4.22;2.90;;;;;;;;;;5086545;28;20020;-65
2022/06/01 04:55:09;;;;;;;5.78;3.38;;;;;;;;;;5082113;28;20032;-64
2022/06/01 04:57:36;;;;;;;7.25;3.20;;;;;;;;;;5074683;28;20393;-65
2022/06/01 05:00:03;;;;;;;6.35;3.33;;;;;;;;;;5087198;28;20090;-65
2022/06/01 05:02:28;;;;;;;6.00;2.88;;;;;;;;;;5086012;28;20044;-65
2022/06/01 05:04:53;;;;;;;5.32;3.25;;;;;;;;;;5079306;28;20945;-65
2022/06/01 05:07:19;;;;;;;7.05;3.08;;;;;;;;;;5086438;28;20038;-65
2022/06/01 05:09:44;;;;;;;7.47;3.40;;;;;;;;;;5082471;28;20061;-65
2022/06/01 05:12:09;;;;;;;7.28;3.08;;;;;;;;;;5084193;28;20496;-65
2022/06/01 05:14:35;;;;;;;6.03;3.30;;;;;;;;;;5093708;28;20032;-65
2022/06/01 05:17:00;;;;;;;8.77;3.70;;;;;;;;;;5085394;28;20036;-65
2022/06/01 05:19:27;;;;;;;7.82;3.38;;;;;;;;;;5099874;28;20077;-65
2022/06/01 05:21:53;;;;;;;5.45;3.13;;;;;;;;;;5082045;28;20535;-65
2022/06/01 05:24:18;;;;;;;6.68;3.50;;;;;;;;;;5084087;28;20012;-65
2022/06/01 05:26:43;;;;;;;6.50;3.22;;;;;;;;;;5079382;28;20035;-65
2022/06/01 05:29:09;;;;;;;7.68;3.38;;;;;;;;;;5080750;28;20557;-65
2022/06/01 05:31:34;;;;;;;8.70;3.40;;;;;;;;;;5086218;28;20567;-65
2022/06/01 05:33:59;;;;;;;7.97;3.50;;;;;;;;;;5086792;28;20663;-65
2022/06/01 05:36:26;;;;;;;9.80;3.90;;;;;;;;;;5091011;28;20015;-65
2022/06/01 05:38:51;;;;;;;6.60;3.42;;;;;;;;;;5091324;28;20024;-65
2022/06/01 05:41:17;;;;;;;5.32;3.20;;;;;;;;;;5084709;28;20028;-65
2022/06/01 05:43:42;;;;;;;8.82;4.03;;;;;;;;;;5078230;28;20067;-65
2022/06/01 05:46:08;;;;;;;12.90;4.18;;;;;;;;;;5076066;28;20036;-65
2022/06/01 05:48:34;;;;;;;8.52;4.25;;;;;;;;;;5083171;28;20138;-65
2022/06/01 05:50:59;;;;;;;8.32;4.18;;;;;;;;;;5081184;28;20497;-65
2022/06/01 05:53:25;;;;;;;7.97;4.15;;;;;;;;;;5089114;28;20028;-65
2022/06/01 05:55:50;;;;;;;9.50;4.40;;;;;;;;;;5086793;28;20032;-65
2022/06/01 05:58:23;;;;;;;8.43;3.75;;;;;;;;;;5080393;28;20535;-65
2022/06/01 06:00:49;;;;;;;9.98;4.88;;;;;;;;;;5082972;28;20040;-65
2022/06/01 06:03:18;;;;;;;7.97;4.28;;;;;;;;;;5089665;28;20024;-65
2022/06/01 06:08:27;;;;;;;13.68;5.10;;;;;;;;;;5089586;28;20043;-65
2022/06/01 06:10:52;;;;;;;8.88;4.55;;;;;;;;;;5087765;28;20586;-65
2022/06/01 06:13:18;;;;;;;12.60;4.90;;;;;;;;;;5092208;28;20028;-65
2022/06/01 06:15:43;;;;;;;12.38;5.00;;;;;;;;;;5091380;28;20504;-65
2022/06/01 06:18:13;;;;;;;10.57;4.75;;;;;;;;;;5090592;28;20019;-65
2022/06/01 06:20:44;;;;;;;14.57;4.95;;;;;;;;;;5088523;28;20048;-65
2022/06/01 06:23:11;;;;;;;11.35;4.78;;;;;;;;;;5076026;28;20063;-64
2022/06/01 06:25:38;;;;;;;9.57;5.10;;;;;;;;;;5088706;28;20122;-65
2022/06/01 06:28:03;;;;;;;10.73;4.75;;;;;;;;;;5085676;28;20051;-65
2022/06/01 06:30:28;;;;;;;13.82;5.55;;;;;;;;;;5086515;28;20113;-65
2022/06/01 06:32:54;;;;;;;16.02;4.70;;;;;;;;;;5076827;28;20106;-65
2022/06/01 06:35:19;;;;;;;12.25;5.38;;;;;;;;;;5089820;28;20032;-65
2022/06/01 06:37:44;;;;;;;11.65;5.60;;;;;;;;;;5085573;28;20501;-65
2022/06/01 06:40:12;;;;;;;15.45;5.55;;;;;;;;;;5074973;28;20094;-65
2022/06/01 06:42:37;;;;;;;13.55;5.38;;;;;;;;;;5072118;28;20024;-65
2022/06/01 06:45:03;;;;;;;12.77;5.32;;;;;;;;;;5082199;28;20024;-64
2022/06/01 06:47:32;;;;;;;12.95;5.40;;;;;;;;;;5068014;28;20101;-65
2022/06/01 06:49:57;;;;;;;10.95;5.57;;;;;;;;;;5068589;28;20047;-65
2022/06/01 06:52:23;;;;;;;17.50;5.93;;;;;;;;;;5085021;28;20508;-65
2022/06/01 06:54:48;;;;;;;11.10;5.70;;;;;;;;;;5082047;28;20037;-65
2022/06/01 06:57:13;;;;;;;16.05;5.32;;;;;;;;;;5082537;28;20456;-65
2022/06/01 06:59:39;;;;;;;16.92;5.53;;;;;;;;;;5087394;28;20113;-65
2022/06/01 07:02:05;;;;;;;17.13;5.80;;;;;;;;;;5084404;28;20048;-65
2022/06/01 07:04:30;;;;;;;9.52;5.05;;;;;;;;;;5085912;28;20052;-65
2022/06/01 07:06:55;;;;;;;14.52;5.40;;;;;;;;;;5085253;28;20412;-65
2022/06/01 07:09:21;;;;;;;10.57;5.57;;;;;;;;;;5084725;28;20059;-65
2022/06/01 07:11:46;;;;;;;10.57;5.82;;;;;;;;;;5083981;28;20044;-65
2022/06/01 07:14:11;;;;;;;12.10;5.93;;;;;;;;;;5084632;28;20047;-65
2022/06/01 07:16:37;;;;;;;14.77;6.15;;;;;;;;;;5083485;28;20047;-65
2022/06/01 07:19:06;;;;;;;12.00;5.50;;;;;;;;;;5080125;28;20136;-65
2022/06/01 07:21:32;;;;;;;13.50;6.40;;;;;;;;;;5085976;28;20165;-65
2022/06/01 07:23:58;;;;;;;19.73;7.15;;;;;;;;;;5084983;28;20035;-65
2022/06/01 07:26:26;;;;;;;11.13;6.25;;;;;;;;;;5084428;28;20393;-65
2022/06/01 07:28:52;;;;;;;12.48;5.93;;;;;;;;;;5081016;28;20045;-65
2022/06/01 07:31:18;;;;;;;15.02;7.10;;;;;;;;;;5083967;28;20040;-65
2022/06/01 07:33:44;;;;;;;10.95;6.53;;;;;;;;;;5082551;28;20056;-65
2022/06/01 07:36:12;;;;;;;11.25;6.30;;;;;;;;;;5081114;28;20100;-66
2022/06/01 07:44:15;;;;;;;14.93;6.63;;;;;;;;;;5082101;28;20186;-65
2022/06/01 07:46:40;;;;;;;14.40;6.90;;;;;;;;;;5074240;28;20032;-64
2022/06/01 07:49:09;;;;;;;12.93;6.82;;;;;;;;;;5081873;28;20763;-65
2022/06/01 07:51:35;;;;;;;10.77;6.03;;;;;;;;;;5085285;28;20107;-65
2022/06/01 07:54:01;;;;;;;12.40;5.88;;;;;;;;;;5087772;28;20027;-65
2022/06/01 07:56:26;;;;;;;17.23;6.88;;;;;;;;;;5086831;28;20036;-65
2022/06/01 07:58:52;;;;;;;14.00;6.47;;;;;;;;;;5081621;28;20101;-65
2022/06/01 08:01:21;;;;;;;10.70;5.20;;;;;;;;;;5080262;28;20036;-65
2022/06/01 08:03:47;;;;;;;8.75;4.43;;;;;;;;;;5086445;28;20074;-65
2022/06/01 08:06:12;;;;;;;8.35;4.30;;;;;;;;;;5083262;28;20024;-65
2022/06/01 08:08:37;;;;;;;7.60;3.75;;;;;;;;;;5087116;28;20495;-65
2022/06/01 08:11:03;;;;;;;7.05;3.97;;;;;;;;;;5082104;28;20052;-66
2022/06/01 08:13:28;;;;;;;8.90;4.20;;;;;;;;;;5083425;28;20156;-65
2022/06/01 08:15:55;;;;;;;11.05;4.47;;;;;;;;;;5079239;28;20049;-65
2022/06/01 08:18:23;;;;;;;6.90;4.50;;;;;;;;;;5084809;28;20024;-66
2022/06/01 08:20:50;;;;;;;8.32;4.30;;;;;;;;;;5080183;28;20066;-65
2022/06/01 08:23:16;;;;;;;7.03;4.70;;;;;;;;;;5084862;28;20036;-66
2022/06/01 08:25:42;;;;;;;6.50;3.42;;;;;;;;;;5077972;28;20411;-65
2022/06/01 08:28:09;;;;;;;7.95;3.70;;;;;;;;;;5073593;28;20047;-65
2022/06/01 08:30:40;;;;;;;8.15;3.72;;;;;;;;;;5087702;28;20425;-65
2022/06/01 08:33:06;;;;;;;15.57;4.30;;;;;;;;;;5085203;28;20028;-65
2022/06/01 08:35:34;;;;;;;4.75;2.67;;;;;;;;;;5080208;28;20127;-65
2022/06/01 08:38:00;;;;;;;4.63;2.92;;;;;;;;;;5079890;28;20039;-65
2022/06/01 08:40:32;;;;;;;5.75;3.03;;;;;;;;;;5085090;28;20042;-65
2022/06/01 08:43:05;;;;;;;6.45;3.10;;;;;;;;;;5083576;28;20529;-65
2022/06/01 08:45:31;;;;;;;6.50;3.00;;;;;;;;;;5082521;28;20038;-65
2022/06/01 08:47:56;;;;;;;4.00;2.47;;;;;;;;;;5083855;28;20123;-66
2022/06/01 08:50:33;;;;;;;3.67;2.60;;;;;;;;;;5081204;28;20134;-65
2022/06/01 08:53:07;;;;;;;4.90;3.10;;;;;;;;;;5077341;28;20394;-66
2022/06/01 08:55:53;;;;;;;6.60;2.78;;;;;;;;;;5080350;28;20083;-65
2022/06/01 08:58:30;;;;;;;4.63;2.60;;;;;;;;;;5080105;28;20042;-65
2022/06/01 09:01:05;;;;;;;7.03;3.33;;;;;;;;;;5080459;28;20550;-65
2022/06/01 09:03:53;;;;;;;5.80;3.22;;;;;;;;;;5082637;28;20093;-65
2022/06/01 09:06:27;;;;;;;5.15;3.05;;;;;;;;;;5056047;28;20544;-65
2022/06/01 09:09:04;;;;;;;7.15;3.03;;;;;;;;;;5079970;28;20044;-65
2022/06/01 09:11:33;;;;;;;5.38;3.13;;;;;;;;;;5081924;28;20127;-65
2022/06/01 09:14:26;;;;;;;4.68;3.10;;;;;;;;;;5074430;28;20146;-65
2022/06/01 09:16:55;;;;;;;4.37;2.93;;;;;;;;;;5078993;28;20045;-66
2022/06/01 09:22:39;;;;;;;5.25;3.40;;;;;;;;;;5086424;28;20101;-65
2022/06/01 09:25:12;;;;;;;8.38;3.30;;;;;;;;;;5088131;28;20123;-66
2022/06/01 09:27:51;;;;;;;6.22;3.42;;;;;;;;;;5087381;28;20042;-65
2022/06/01 09:30:26;;;;;;;4.82;2.70;;;;;;;;;;5083265;28;20059;-65
2022/06/01 09:33:04;;;;;;;5.10;3.08;;;;;;;;;;5085291;28;20044;-65
2022/06/01 09:35:36;;;;;;;5.05;2.92;;;;;;;;;;5080765;28;20044;-65
2022/06/01 09:38:10;;;;;;;4.97;3.30;;;;;;;;;;5086093;28;20127;-65
2022/06/01 09:40:36;;;;;;;5.30;3.50;;;;;;;;;;5085146;28;20040;-65
2022/06/01 09:43:03;;;;;;;4.50;3.25;;;;;;;;;;5090022;28;20036;-65
2022/06/01 09:45:46;;;;;;;5.95;3.90;;;;;;;;;;5085779;28;20501;-65
2022/06/01 09:48:26;;;;;;;8.95;4.38;;;;;;;;;;5082324;28;20019;-65
2022/06/01 09:51:15;;;;;;;6.28;3.65;;;;;;;;;;5084736;28;20036;-65
2022/06/01 09:53:44;;;;;;;5.88;3.90;;;;;;;;;;5086503;28;20059;-65
2022/06/01 09:56:10;;;;;;;9.10;5.07;;;;;;;;;;5086962;28;20031;-65
2022/06/01 10:07:19;;;;;;;5.97;4.57;;;;;;;;;;5085662;28;20458;-66
2022/06/01 10:09:50;;;;;;;7.97;4.18;;;;;;;;;;5085094;28;20523;-65
2022/06/01 10:12:41;;;;;;;6.70;4.72;;;;;;;;;;5078894;28;20460;-66
2022/06/01 10:15:17;;;;;;;6.75;4.40;;;;;;;;;;5084839;28;20070;-66
2022/06/01 10:17:48;;;;;;;8.85;4.88;;;;;;;;;;5082077;28;22068;-66
2022/06/01 10:20:43;;;;;;;10.15;4.93;;;;;;;;;;5084191;28;20044;-66
2022/06/01 10:23:34;;;;;;;7.20;5.18;;;;;;;;;;5086519;28;20093;-66
2022/06/01 10:26:09;;;;;;;5.20;4.18;;;;;;;;;;5084530;28;20055;-66
2022/06/01 10:28:40;;;;;;;7.00;4.80;;;;;;;;;;5090393;28;20044;-66
2022/06/01 10:31:31;;;;;;;9.20;4.78;;;;;;;;;;5086504;28;20078;-66
2022/06/01 10:34:05;;;;;;;6.65;4.80;;;;;;;;;;5082179;28;20040;-65
2022/06/01 10:37:07;;;;;;;5.40;3.67;;;;;;;;;;5082108;28;20042;-66
2022/06/01 10:39:49;;;;;;;3.80;2.90;;;;;;;;;;5083509;28;20661;-66
2022/06/01 10:42:21;;;;;;;5.20;2.88;;;;;;;;;;5084293;28;20042;-66
2022/06/01 10:45:13;;;;;;;4.78;2.53;;;;;;;;;;5077114;28;20040;-66
2022/06/01 10:48:05;;;;;;;7.00;2.60;;;;;;;;;;5078093;28;20048;-66
2022/06/01 10:50:38;;;;;;;6.13;2.92;;;;;;;;;;5067557;28;20611;-66
2022/06/01 10:53:13;;;;;;;3.58;2.70;;;;;;;;;;5083383;28;20051;-65
2022/06/01 10:55:44;;;;;;;4.45;2.30;;;;;;;;;;5073995;28;20566;-65
2022/06/01 10:58:16;;;;;;;4.90;2.72;;;;;;;;;;5076595;28;20532;-66
2022/06/01 11:00:49;;;;;;;3.85;2.40;;;;;;;;;;5074768;28;20119;-66
2022/06/01 11:03:21;;;;;;;3.60;2.60;;;;;;;;;;5085859;28;20024;-66
2022/06/01 11:06:13;;;;;;;21.83;3.65;;;;;;;;;;5083450;28;20040;-66
2022/06/01 11:08:53;;;;;;;2.88;2.15;;;;;;;;;;5085465;28;20032;-66
2022/06/01 11:11:57;;;;;;;4.40;2.33;;;;;;;;;;5086462;28;20084;-65
2022/06/01 11:14:29;;;;;;;4.30;2.40;;;;;;;;;;5047901;28;20040;-66
2022/06/01 11:16:58;;;;;;;4.18;2.70;;;;;;;;;;5081516;28;20074;-66
2022/06/01 11:19:57;;;;;;;3.45;2.42;;;;;;;;;;5076650;28;20524;-66
2022/06/01 11:22:58;;;;;;;3.47;2.53;;;;;;;;;;5081367;28;20049;-66
2022/06/01 11:25:42;;;;;;;3.78;2.50;;;;;;;;;;5082984;28;20063;-66
2022/06/01 11:28:18;;;;;;;3.78;1.70;;;;;;;;;;5071938;28;20119;-66
2022/06/01 11:30:59;;;;;;;3.90;2.00;;;;;;;;;;5077193;28;20456;-66
2022/06/01 11:33:34;;;;;;;2.03;1.33;;;;;;;;;;5081806;28;20501;-66
2022/06/01 11:36:24;;;;;;;1.67;1.40;;;;;;;;;;5087298;28;20035;-66
2022/06/01 11:38:56;;;;;;;3.92;1.73;;;;;;;;;;5083326;28;20164;-66
2022/06/01 11:41:31;;;;;;;1.55;1.40;;;;;;;;;;5087355;28;20027;-65
2022/06/01 11:44:02;;;;;;;2.88;1.50;;;;;;;;;;5083442;28;20047;-65
2022/06/01 11:46:33;;;;;;;2.50;1.58;;;;;;;;;;5083672;28;20412;-66
2022/06/01 11:49:03;;;;;;;4.22;1.60;;;;;;;;;;5084419;28;20048;-66
2022/06/01 11:51:37;;;;;;;4.20;1.65;;;;;;;;;;5082849;28;20646;-66
2022/06/01 11:54:04;;;;;;;3.72;1.60;;;;;;;;;;5080546;28;20012;-66
2022/06/01 11:56:30;;;;;;;5.55;1.75;;;;;;;;;;5084631;28;20040;-66
2022/06/01 11:59:19;;;;;;;1.95;1.50;;;;;;;;;;5087868;28;20048;-66
2022/06/01 12:01:48;;;;;;;2.70;2.00;;;;;;;;;;5079078;28;20044;-66
2022/06/01 12:04:17;;;;;;;3.05;1.90;;;;;;;;;;5075380;28;20040;-66
2022/06/01 12:06:51;;;;;;;3.65;2.17;;;;;;;;;;5079465;28;20020;-70
2022/06/01 12:09:28;;;;;;;7.93;2.42;;;;;;;;;;5089416;28;20501;-69
2022/06/01 12:11:54;;;;;;;9.73;3.17;;;;;;;;;;5092604;28;20048;-68
2022/06/01 12:14:55;;;;;;;7.18;1.95;;;;;;;;;;5080569;28;20175;-70
2022/06/01 12:17:27;;;;;;;4.30;2.10;;;;;;;;;;5065447;28;20115;-70
2022/06/01 12:20:38;;;;;;;6.38;2.50;;;;;;;;;;5070651;28;20037;-70
2022/06/01 12:29:07;;;;;;;3.05;2.10;;;;;;;;;;5077884;28;20086;-68
2022/06/01 12:31:39;;;;;;;3.35;1.90;;;;;;;;;;5078497;28;20039;-69
2022/06/01 12:34:19;;;;;;;2.50;1.80;;;;;;;;;;5082266;28;20131;-67
2022/06/01 12:37:03;;;;;;;5.03;1.80;;;;;;;;;;5075156;28;20085;-66
2022/06/01 12:39:35;;;;;;;2.42;2.00;;;;;;;;;;5079633;28;20032;-67
2022/06/01 12:42:07;;;;;;;5.68;1.75;;;;;;;;;;5084403;28;20440;-66
2022/06/01 12:44:35;;;;;;;3.45;1.90;;;;;;;;;;5093690;28;20568;-67
2022/06/01 12:47:01;;;;;;;3.08;2.10;;;;;;;;;;5076770;28;20675;-67
2022/06/01 12:49:30;;;;;;;3.40;2.10;;;;;;;;;;5080829;28;20047;-67
2022/06/01 12:52:00;;;;;;;3.42;2.30;;;;;;;;;;5083823;28;20035;-67
2022/06/01 12:54:29;;;;;;;3.75;1.70;;;;;;;;;;5083647;28;20020;-66
2022/06/01 12:56:55;;;;;;;3.50;1.70;;;;;;;;;;5075413;28;20043;-66
2022/06/01 12:59:21;;;;;;;2.10;1.90;;;;;;;;;;5081079;28;20032;-66
2022/06/01 13:01:51;;;;;;;2.47;1.52;;;;;;;;;;5077395;28;20047;-66
2022/06/01 13:04:24;;;;;;;2.28;1.75;;;;;;;;;;5079838;28;20527;-66
2022/06/01 13:06:50;;;;;;;2.95;1.52;;;;;;;;;;5075119;28;20552;-66
2022/06/01 13:09:36;;;;;;;1.58;1.38;;;;;;;;;;5080160;28;20028;-66
2022/06/01 13:12:14;;;;;;;3.28;1.55;;;;;;;;;;5080908;28;20059;-66
2022/06/01 13:14:39;;;;;;;2.22;1.33;;;;;;;;;;5077749;28;20042;-66
2022/06/01 13:17:11;;;;;;;3.03;1.65;;;;;;;;;;5078664;28;20028;-66
2022/06/01 13:19:38;;;;;;;2.08;1.40;;;;;;;;;;5068633;28;20145;-66
2022/06/01 13:22:17;;;;;;;4.57;2.00;;;;;;;;;;5089382;28;20060;-66
2022/06/01 13:24:55;;;;;;;2.15;1.83;;;;;;;;;;5070284;28;20039;-66
2022/06/01 13:27:20;;;;;;;2.03;1.80;;;;;;;;;;5081402;28;20098;-66
2022/06/01 13:29:48;;;;;;;3.75;1.80;;;;;;;;;;5086955;28;20468;-66
2022/06/01 13:32:18;;;;;;;5.13;1.90;;;;;;;;;;5079433;28;20032;-66
2022/06/01 13:34:52;;;;;;;1.65;1.50;;;;;;;;;;5081842;28;20285;-66
2022/06/01 13:37:22;;;;;;;1.90;1.70;;;;;;;;;;5077308;28;20088;-67
2022/06/01 13:39:54;;;;;;;4.18;1.98;;;;;;;;;;5078500;28;20084;-66
2022/06/01 13:42:46;;;;;;;7.13;3.85;;;;;;;;;;5075662;28;20386;-66
2022/06/01 13:45:35;;;;;;;5.43;3.72;;;;;;;;;;5075877;28;20032;-68
2022/06/01 13:48:05;;;;;;;7.25;4.45;;;;;;;;;;5075877;28;20044;-67
2022/06/01 13:50:39;;;;;;;5.80;4.22;;;;;;;;;;5077766;28;20593;-66
2022/06/01 13:53:12;;;;;;;9.40;4.10;;;;;;;;;;5077340;28;20028;-66
2022/06/01 13:55:54;;;;;;;7.03;3.63;;;;;;;;;;5084652;28;20573;-66
2022/06/01 13:58:26;;;;;;;4.18;3.67;;;;;;;;;;5078220;28;20028;-66
2022/06/01 14:01:06;;;;;;;5.57;4.03;;;;;;;;;;5079833;28;20596;-66
2022/06/01 14:03:40;;;;;;;5.30;3.42;;;;;;;;;;5081769;28;20032;-66
2022/06/01 14:06:09;;;;;;;6.07;2.80;;;;;;;;;;5070927;28;20509;-66
2022/06/01 14:08:50;;;;;;;3.80;3.13;;;;;;;;;;5083063;28;20039;-67
2022/06/01 14:11:22;;;;;;;3.67;2.92;;;;;;;;;;5084804;28;20032;-67
2022/06/01 14:13:47;;;;;;;3.80;2.97;;;;;;;;;;5084907;28;20040;-66
2022/06/01 14:16:18;;;;;;;3.53;3.00;;;;;;;;;;5087799;28;20105;-69
2022/06/01 14:19:01;;;;;;;3.85;2.90;;;;;;;;;;5081415;28;20040;-68
2022/06/01 14:21:27;;;;;;;;;;;;;;;;;;5085307;28;20059;-68
2022/06/01 14:23:53;;;;;;;4.15;2.97;;;;;;;;;;5082200;28;19907;-69
2022/06/01 14:29:03;;;;;;;5.03;2.72;;;;;;;;;;5082903;28;20137;-68
2022/06/01 14:31:31;;;;;;;4.47;2.60;;;;;;;;;;5088166;28;20040;-68
2022/06/01 14:33:58;;;;;;;3.63;2.45;;;;;;;;;;5078798;28;20036;-68
2022/06/01 14:36:27;;;;;;;3.35;2.72;;;;;;;;;;5086317;28;20073;-69
2022/06/01 14:38:52;;;;;;;6.28;3.40;;;;;;;;;;5080837;28;20055;-69
2022/06/01 14:41:31;;;;;;;4.10;3.25;;;;;;;;;;5084643;28;20046;-68
2022/06/01 14:43:59;;;;;;;3.60;3.30;;;;;;;;;;5079173;28;20794;-68
2022/06/01 14:46:25;;;;;;;3.70;3.17;;;;;;;;;;5084228;28;20661;-68
2022/06/01 14:48:50;;;;;;;5.80;3.30;;;;;;;;;;5079951;28;20032;-70
2022/06/01 14:51:20;;;;;;;4.78;3.17;;;;;;;;;;5083229;28;20089;-69
2022/06/01 14:53:45;;;;;;;7.18;3.17;;;;;;;;;;5079399;28;20067;-73
2022/06/01 14:56:12;;;;;;;6.68;3.50;;;;;;;;;;5079710;28;20378;-73
2022/06/01 14:58:37;;;;;;;3.88;3.20;;;;;;;;;;5079421;28;20115;-73
2022/06/01 15:01:09;;;;;;;3.22;2.92;;;;;;;;;;5083836;28;20114;-73
2022/06/01 15:03:39;;;;;;;4.93;3.43;;;;;;;;;;5084511;28;20019;-72
2022/06/01 15:06:04;;;;;;;4.07;3.40;;;;;;;;;;5083323;28;20634;-73
2022/06/01 15:08:30;;;;;;;3.22;2.65;;;;;;;;;;5074970;28;20533;-72
2022/06/01 15:10:55;;;;;;;3.65;2.88;;;;;;;;;;5082600;28;20042;-73
2022/06/01 15:13:21;;;;;;;3.85;3.03;;;;;;;;;;5085474;28;20037;-73
2022/06/01 15:15:47;;;;;;;3.63;3.10;;;;;;;;;;5083548;28;20578;-73
2022/06/01 15:18:13;;;;;;;4.20;2.60;;;;;;;;;;5084433;28;20024;-73
2022/06/01 15:20:39;;;;;;;3.33;2.95;;;;;;;;;;5080456;28;20181;-73
2022/06/01 15:23:05;;;;;;;5.07;3.03;;;;;;;;;;5079499;28;20115;-73
2022/06/01 15:25:31;;;;;;;3.35;2.83;;;;;;;;;;5083725;28;20105;-73
2022/06/01 15:27:56;;;;;;;3.35;3.05;;;;;;;;;;5080416;28;20459;-72
2022/06/01 15:41:18;;;;;;;3.45;2.83;;;;;;;;;;5075290;28;20933;-70
2022/06/01 15:43:43;;;;;;;4.63;2.90;;;;;;;;;;5072269;28;20790;-73
2022/06/01 15:46:16;;;;;;;3.03;2.58;;;;;;;;;;5078832;28;20195;-73